createdAt,value
2023-01-13T00:00:27.993Z,74.38
2023-01-13T00:04:58.685Z,74.45
2023-01-13T00:09:06.892Z,74.54
2023-01-13T00:13:14.513Z,74.76
2023-01-13T00:17:23.683Z,74.59
2023-01-13T00:21:31.489Z,74.64
2023-01-13T00:25:39.957Z,74.41
2023-01-13T00:29:47.438Z,74.41
2023-01-13T00:33:57.270Z,74.98
2023-01-13T00:38:04.954Z,74.75
2023-01-13T00:42:29.866Z,74.77
2023-01-13T00:46:37.872Z,75.17
2023-01-13T00:50:46.137Z,75.30
2023-01-13T00:54:54.527Z,75.15
2023-01-13T00:59:02.367Z,75.27
2023-01-13T01:03:13.189Z,75.31
2023-01-13T01:07:21.303Z,74.94
2023-01-13T01:11:31.936Z,75.30
2023-01-13T01:15:44.009Z,75.26
2023-01-13T01:19:51.738Z,74.70
2023-01-13T01:24:02.574Z,74.76
2023-01-13T01:28:13.199Z,74.84
2023-01-13T01:32:21.087Z,74.71
2023-01-13T01:36:30.523Z,74.45
2023-01-13T01:40:38.369Z,74.55
2023-01-13T01:45:00.631Z,74.51
2023-01-13T01:49:14.554Z,74.24
2023-01-13T01:53:24.143Z,74.46
2023-01-13T01:57:35.666Z,74.17
2023-01-13T02:01:46.645Z,74.23
2023-01-13T02:05:54.281Z,74.07
2023-01-13T02:10:05.430Z,74.13
2023-01-13T02:14:14.273Z,73.57
2023-01-13T02:18:38.901Z,73.50
2023-01-13T02:23:02.868Z,73.75
2023-01-13T02:27:33.263Z,73.39
2023-01-13T02:31:44.232Z,73.72
2023-01-13T02:35:55.625Z,73.49
2023-01-13T02:40:07.468Z,73.47
2023-01-13T02:44:21.308Z,73.29
2023-01-13T02:48:30.390Z,73.13
2023-01-13T02:52:41.599Z,73.34
2023-01-13T02:56:51.367Z,73.33
2023-01-13T03:01:00.115Z,73.73
2023-01-13T03:05:08.924Z,73.49
2023-01-13T03:09:20.849Z,73.24
2023-01-13T03:13:54.490Z,73.36
2023-01-13T03:18:08.539Z,73.38
2023-01-13T03:22:22.376Z,73.02
2023-01-13T03:26:34.897Z,73.29
2023-01-13T03:30:49.661Z,73.42
2023-01-13T03:35:01.104Z,73.09
2023-01-13T03:39:13.105Z,72.99
2023-01-13T03:43:41.593Z,73.17
2023-01-13T03:47:52.546Z,73.01
2023-01-13T03:52:03.316Z,73.16
2023-01-13T03:56:17.222Z,72.83
2023-01-13T04:00:27.497Z,72.95
2023-01-13T04:04:36.622Z,73.14
2023-01-13T04:08:49.751Z,73.08
2023-01-13T04:13:05.576Z,73.05
2023-01-13T04:17:13.387Z,73.09
2023-01-13T04:21:21.440Z,73.09
2023-01-13T04:25:29.874Z,72.77
2023-01-13T04:29:39.090Z,72.97
2023-01-13T04:33:47.070Z,72.75
2023-01-13T04:37:55.252Z,72.65
2023-01-13T04:42:03.217Z,72.69
2023-01-13T04:46:10.909Z,72.84
2023-01-13T04:50:20.663Z,73.10
2023-01-13T04:54:28.467Z,72.57
2023-01-13T04:58:36.801Z,73.04
2023-01-13T05:02:44.129Z,72.76
2023-01-13T05:06:52.359Z,73.15
2023-01-13T05:11:24.066Z,73.29
2023-01-13T05:15:49.501Z,73.06
2023-01-13T05:19:57.486Z,73.56
2023-01-13T05:24:22.938Z,73.19
2023-01-13T05:28:34.733Z,72.92
2023-01-13T05:32:42.672Z,73.17
2023-01-13T05:36:50.677Z,72.90
2023-01-13T05:41:15.377Z,73.06
2023-01-13T05:45:23.427Z,72.98
2023-01-13T05:49:31.141Z,72.80
2023-01-13T05:53:40.664Z,72.54
2023-01-13T05:57:48.960Z,72.78
2023-01-13T06:01:57.082Z,73.14
2023-01-13T06:06:05.488Z,73.04
2023-01-13T06:10:14.702Z,73.13
2023-01-13T06:14:22.445Z,73.13
2023-01-13T06:18:30.918Z,73.40
2023-01-13T06:22:41.453Z,73.15
2023-01-13T06:26:49.737Z,73.28
2023-01-13T06:30:59.723Z,73.33
2023-01-13T06:35:10.875Z,73.16
2023-01-13T06:39:21.228Z,73.70
2023-01-13T06:43:29.446Z,73.25
2023-01-13T06:47:37.190Z,73.33
2023-01-13T06:51:45.044Z,73.37
2023-01-13T06:55:52.730Z,73.35
2023-01-13T07:00:01.592Z,73.56
2023-01-13T07:04:10.086Z,73.56
2023-01-13T07:08:17.893Z,73.70
2023-01-13T07:12:25.666Z,73.54
2023-01-13T07:16:36.833Z,73.63
2023-01-13T07:20:44.835Z,73.58
2023-01-13T07:24:52.449Z,73.57
2023-01-13T07:29:01.019Z,73.84
2023-01-13T07:33:08.840Z,73.51
2023-01-13T07:37:16.796Z,73.81
2023-01-13T07:41:42.174Z,73.75
2023-01-13T07:45:49.921Z,73.56
2023-01-13T07:49:58.133Z,73.54
2023-01-13T07:54:06.263Z,73.42
2023-01-13T07:58:13.845Z,73.23
2023-01-13T08:02:22.023Z,73.23
2023-01-13T08:06:30.815Z,73.18
2023-01-13T08:10:38.892Z,73.31
2023-01-13T08:14:46.130Z,73.56
2023-01-13T08:18:53.912Z,73.36
2023-01-13T08:23:02.516Z,73.38
2023-01-13T08:27:10.321Z,73.50
2023-01-13T08:31:20.355Z,73.35
2023-01-13T08:35:30.926Z,73.18
2023-01-13T08:39:40.095Z,73.15
2023-01-13T08:43:47.938Z,73.50
2023-01-13T08:47:55.796Z,73.53
2023-01-13T08:52:04.954Z,73.97
2023-01-13T08:56:13.845Z,73.23
2023-01-13T09:00:23.976Z,73.95
2023-01-13T09:04:33.706Z,73.96
2023-01-13T09:08:41.396Z,73.75
2023-01-13T09:13:11.566Z,73.27
2023-01-13T09:17:20.295Z,73.69
2023-01-13T09:21:28.257Z,73.68
2023-01-13T09:25:37.347Z,73.47
2023-01-13T09:29:46.042Z,73.28
2023-01-13T09:34:16.875Z,73.25
2023-01-13T09:38:25.267Z,73.30
2023-01-13T09:43:01.880Z,72.99
2023-01-13T09:47:21.463Z,73.46
2023-01-13T09:51:32.844Z,73.25
2023-01-13T09:55:40.980Z,72.98
2023-01-13T09:59:49.272Z,72.80
2023-01-13T10:03:56.900Z,72.63
2023-01-13T10:08:07.221Z,72.85
2023-01-13T10:12:36.578Z,72.13
2023-01-13T10:16:49.716Z,72.06
2023-01-13T10:21:04.104Z,72.09
2023-01-13T10:25:21.524Z,71.82
2023-01-13T10:29:31.385Z,71.46
2023-01-13T10:33:39.040Z,71.67
2023-01-13T10:37:59.429Z,70.91
2023-01-13T10:42:08.978Z,70.62
2023-01-13T10:46:19.413Z,70.44
2023-01-13T10:50:31.686Z,70.57
2023-01-13T10:54:39.697Z,70.98
2023-01-13T10:58:47.901Z,70.88
2023-01-13T11:03:13.127Z,70.37
2023-01-13T11:07:34.577Z,70.46
2023-01-13T11:11:43.583Z,69.99
2023-01-13T11:15:57.205Z,70.28
2023-01-13T11:20:14.361Z,70.25
2023-01-13T11:24:26.946Z,69.86
2023-01-13T11:28:41.529Z,70.07
2023-01-13T11:32:59.148Z,70.07
2023-01-13T11:37:16.002Z,69.99
2023-01-13T11:41:38.424Z,69.75
2023-01-13T11:45:50.968Z,69.70
2023-01-13T11:49:59.487Z,69.59
2023-01-13T11:54:36.567Z,69.82
2023-01-13T11:59:20.761Z,69.47
2023-01-13T12:03:32.686Z,69.71
2023-01-13T12:07:49.993Z,69.27
2023-01-13T12:12:21.199Z,69.59
2023-01-13T12:16:32.180Z,69.42
2023-01-13T12:20:45.807Z,69.23
2023-01-13T12:25:01.505Z,68.94
2023-01-13T12:29:15.519Z,68.88
2023-01-13T12:33:29.672Z,68.38
2023-01-13T12:37:42.925Z,68.22
2023-01-13T12:42:11.342Z,68.16
2023-01-13T12:46:36.623Z,67.98
2023-01-13T12:50:47.613Z,68.11
2023-01-13T12:55:21.860Z,67.86
2023-01-13T12:59:55.156Z,67.93
2023-01-13T13:04:14.520Z,67.90
2023-01-13T13:08:27.940Z,67.99
2023-01-13T13:13:17.521Z,67.90
2023-01-13T13:17:44.408Z,67.98
2023-01-13T13:22:22.461Z,67.81
2023-01-13T13:26:36.889Z,67.98
2023-01-13T13:30:50.072Z,68.01
2023-01-13T13:35:13.868Z,68.03
2023-01-13T13:39:41.685Z,68.22
2023-01-13T13:44:07.500Z,68.40
2023-01-13T13:48:30.781Z,68.42
2023-01-13T13:52:42.771Z,68.53
2023-01-13T13:56:51.307Z,68.43
2023-01-13T14:00:59.476Z,68.32
2023-01-13T14:05:20.677Z,68.12
2023-01-13T14:09:29.878Z,68.31
2023-01-13T14:13:37.763Z,68.37
2023-01-13T14:17:45.294Z,68.52
2023-01-13T14:21:53.230Z,68.75
2023-01-13T14:26:09.134Z,69.17
2023-01-13T14:30:20.865Z,69.34
2023-01-13T14:34:31.683Z,69.77
2023-01-13T14:38:44.403Z,71.13
2023-01-13T14:43:00.685Z,72.76
2023-01-13T14:47:21.435Z,73.76
2023-01-13T14:51:31.364Z,74.65
2023-01-13T14:55:41.682Z,75.02
2023-01-13T14:59:57.791Z,75.54
2023-01-13T15:04:23.783Z,75.67
2023-01-13T15:08:36.980Z,75.91
2023-01-13T15:12:46.617Z,76.54
2023-01-13T15:16:54.983Z,76.47
2023-01-13T15:21:03.003Z,76.65
2023-01-13T15:25:12.316Z,76.68
2023-01-13T15:29:22.896Z,76.59
2023-01-13T15:33:33.105Z,77.22
2023-01-13T15:37:41.149Z,77.10
2023-01-13T15:42:06.023Z,77.13
2023-01-13T15:46:34.185Z,77.57
2023-01-13T15:50:42.760Z,77.59
2023-01-13T15:54:50.587Z,77.34
2023-01-13T15:58:58.923Z,77.86
2023-01-13T16:03:07.083Z,78.19
2023-01-13T16:07:18.096Z,78.22
2023-01-13T16:11:25.799Z,78.06
2023-01-13T16:15:34.250Z,78.14
2023-01-13T16:19:42.920Z,77.96
2023-01-13T16:23:52.076Z,78.27
2023-01-13T16:28:00.084Z,77.89
2023-01-13T16:32:08.583Z,78.20
2023-01-13T16:36:19.476Z,78.08
2023-01-13T16:40:31.248Z,78.17
2023-01-13T16:44:39.438Z,78.37
2023-01-13T16:48:48.032Z,78.44
2023-01-13T16:52:56.114Z,78.15
2023-01-13T16:57:03.935Z,78.27
2023-01-13T17:01:14.850Z,78.31
2023-01-13T17:05:22.940Z,78.60
2023-01-13T17:09:31.425Z,78.56
2023-01-13T17:13:39.714Z,78.26
2023-01-13T17:17:52.380Z,78.23
2023-01-13T17:22:00.185Z,78.81
2023-01-13T17:26:08.225Z,79.13
2023-01-13T17:30:16.754Z,78.94
2023-01-13T17:34:24.740Z,78.58
2023-01-13T17:38:34.101Z,78.94
2023-01-13T17:42:42.453Z,78.64
2023-01-13T17:46:50.700Z,78.39
2023-01-13T17:50:58.353Z,78.43
2023-01-13T17:55:06.349Z,78.59
2023-01-13T17:59:16.471Z,78.77
2023-01-13T18:03:27.187Z,79.50
2023-01-13T18:07:40.621Z,79.47
2023-01-13T18:11:49.089Z,79.54
2023-01-13T18:16:07.143Z,79.28
2023-01-13T18:20:36.586Z,79.13
2023-01-13T18:25:02.185Z,79.35
2023-01-13T18:29:10.320Z,78.82
2023-01-13T18:33:17.785Z,79.36
2023-01-13T18:37:26.322Z,79.02
2023-01-13T18:41:51.453Z,78.81
2023-01-13T18:45:59.129Z,78.89
2023-01-13T18:50:08.814Z,79.16
2023-01-13T18:54:16.389Z,79.35
2023-01-13T18:58:24.279Z,79.46
2023-01-13T19:02:31.889Z,80.07
2023-01-13T19:06:42.416Z,80.12
2023-01-13T19:10:53.514Z,80.33
2023-01-13T19:15:02.460Z,80.36
2023-01-13T19:19:12.213Z,80.37
2023-01-13T19:23:19.799Z,80.35
2023-01-13T19:27:29.293Z,80.23
2023-01-13T19:31:37.627Z,80.32
2023-01-13T19:35:45.928Z,80.23
2023-01-13T19:39:53.822Z,80.02
2023-01-13T19:44:18.843Z,79.92
2023-01-13T19:48:26.607Z,79.77
2023-01-13T19:52:34.314Z,79.75
2023-01-13T19:56:42.910Z,79.47
2023-01-13T20:01:16.304Z,79.44
2023-01-13T20:05:26.384Z,79.56
2023-01-13T20:09:35.010Z,79.68
2023-01-13T20:13:43.006Z,79.70
2023-01-13T20:17:50.843Z,79.66
2023-01-13T20:21:58.509Z,79.53
2023-01-13T20:26:09.652Z,79.49
2023-01-13T20:30:17.039Z,79.46
2023-01-13T20:34:25.308Z,79.39
2023-01-13T20:38:37.543Z,79.43
2023-01-13T20:42:46.046Z,79.21
2023-01-13T20:46:56.024Z,79.13
2023-01-13T20:51:03.504Z,78.89
2023-01-13T20:55:12.831Z,78.72
2023-01-13T20:59:21.022Z,78.44
2023-01-13T21:03:28.735Z,78.67
2023-01-13T21:07:36.658Z,78.49
2023-01-13T21:12:01.917Z,78.48
2023-01-13T21:16:13.099Z,78.22
2023-01-13T21:20:21.750Z,78.32
2023-01-13T21:25:41.128Z,78.25
2023-01-13T21:31:19.494Z,78.04
